createdAt,value
2018-03-02T00:00:15.060Z,20.43
2018-03-02T00:02:43.212Z,17.77
2018-03-02T00:05:12.180Z,18.70
2018-03-02T00:07:40.350Z,16.00
2018-03-02T00:10:08.513Z,18.33
2018-03-02T00:12:36.678Z,18.83
2018-03-02T00:15:04.842Z,19.13
2018-03-02T00:17:32.993Z,19.13
2018-03-02T00:20:01.362Z,19.47
2018-03-02T00:22:29.526Z,17.80
2018-03-02T00:24:58.447Z,19.10
2018-03-02T00:27:27.410Z,18.97
2018-03-02T00:29:55.558Z,19.93
2018-03-02T00:32:23.729Z,17.77
2018-03-02T00:34:51.883Z,17.53
2018-03-02T00:37:20.080Z,18.37
2018-03-02T00:39:48.232Z,18.47
2018-03-02T00:42:16.408Z,18.33
2018-03-02T00:44:44.574Z,20.90
2018-03-02T00:47:12.753Z,19.83
2018-03-02T00:49:40.910Z,19.33
2018-03-02T00:52:09.926Z,19.77
2018-03-02T00:54:38.076Z,20.43
2018-03-02T00:57:06.255Z,17.97
2018-03-02T00:59:34.411Z,19.17
2018-03-02T01:02:02.597Z,18.63
2018-03-02T01:04:30.755Z,20.30
2018-03-02T01:06:58.936Z,18.97
2018-03-02T01:09:27.092Z,19.43
2018-03-02T01:11:55.311Z,20.93
2018-03-02T01:14:23.500Z,21.83
2018-03-02T01:16:51.759Z,20.67
2018-03-02T01:19:19.941Z,20.77
2018-03-02T01:21:48.175Z,19.10
2018-03-02T01:24:16.420Z,17.97
2018-03-02T01:26:44.677Z,20.77
2018-03-02T01:29:12.868Z,20.30
2018-03-02T01:31:41.827Z,20.67
2018-03-02T01:34:10.032Z,20.03
2018-03-02T01:36:38.275Z,19.40
2018-03-02T01:39:06.483Z,19.23
2018-03-02T01:41:34.727Z,20.53
2018-03-02T01:44:02.958Z,19.93
2018-03-02T01:46:31.196Z,19.47
2018-03-02T01:48:59.436Z,18.80
2018-03-02T01:51:45.520Z,21.17
2018-03-02T01:54:14.543Z,19.80
2018-03-02T01:56:42.715Z,20.87
2018-03-02T01:59:10.989Z,20.77
2018-03-02T02:01:39.184Z,18.50
2018-03-02T02:04:07.394Z,20.03
2018-03-02T02:06:35.639Z,20.33
2018-03-02T02:09:05.441Z,20.73
2018-03-02T02:11:34.398Z,21.43
2018-03-02T02:14:02.631Z,20.63
2018-03-02T02:16:31.621Z,20.73
2018-03-02T02:19:00.656Z,20.40
2018-03-02T02:21:28.867Z,17.80
2018-03-02T02:23:57.079Z,20.40
2018-03-02T02:26:25.254Z,19.30
2018-03-02T02:28:53.462Z,20.37
2018-03-02T02:31:21.632Z,19.43
2018-03-02T02:33:49.784Z,21.93
2018-03-02T02:36:17.994Z,19.63
2018-03-02T02:38:46.158Z,20.77
2018-03-02T02:41:14.348Z,20.30
2018-03-02T02:43:42.506Z,20.33
2018-03-02T02:46:10.931Z,22.33
2018-03-02T02:48:39.147Z,20.80
2018-03-02T02:51:07.408Z,21.67
2018-03-02T02:53:35.589Z,21.23
2018-03-02T02:56:03.762Z,20.00
2018-03-02T02:58:31.942Z,23.00
2018-03-02T03:01:00.156Z,20.30
2018-03-02T03:03:29.101Z,20.17
2018-03-02T03:05:57.322Z,22.10
2018-03-02T03:08:25.499Z,20.43
2018-03-02T03:10:53.713Z,21.60
2018-03-02T03:13:21.930Z,20.10
2018-03-02T03:15:50.144Z,19.47
2018-03-02T03:18:18.318Z,21.90
2018-03-02T03:20:47.403Z,22.20
2018-03-02T03:23:16.359Z,21.03
2018-03-02T03:25:44.526Z,22.30
2018-03-02T03:28:12.792Z,22.33
2018-03-02T03:30:41.014Z,21.00
2018-03-02T03:33:09.995Z,24.30
2018-03-02T03:35:38.218Z,23.27
2018-03-02T03:38:06.461Z,21.13
2018-03-02T03:40:35.388Z,20.97
2018-03-02T03:43:03.606Z,20.33
2018-03-02T03:45:31.790Z,21.30
2018-03-02T03:48:00.001Z,22.43
2018-03-02T03:50:28.248Z,21.33
2018-03-02T03:52:57.232Z,19.87
2018-03-02T03:55:25.433Z,21.53
2018-03-02T03:57:53.661Z,19.07
2018-03-02T04:00:21.870Z,21.53
2018-03-02T04:02:50.897Z,19.80
2018-03-02T04:05:19.097Z,21.87
2018-03-02T04:07:47.348Z,22.80
2018-03-02T04:10:15.546Z,22.27
2018-03-02T04:12:43.797Z,20.67
2018-03-02T04:15:11.993Z,21.17
2018-03-02T04:17:40.212Z,22.17
2018-03-02T04:20:09.178Z,19.60
2018-03-02T04:22:37.401Z,23.23
2018-03-02T04:25:05.624Z,22.60
2018-03-02T04:27:33.856Z,21.83
2018-03-02T04:30:02.060Z,23.13
2018-03-02T04:32:30.279Z,22.47
2018-03-02T04:34:59.274Z,22.23
2018-03-02T04:37:28.204Z,22.33
2018-03-02T04:39:56.445Z,22.90
2018-03-02T04:42:24.656Z,20.83
2018-03-02T04:44:52.921Z,22.67
2018-03-02T04:47:21.118Z,23.20
2018-03-02T04:49:49.393Z,21.00
2018-03-02T04:52:17.569Z,22.83
2018-03-02T04:54:45.725Z,22.00
2018-03-02T04:57:13.870Z,22.90
2018-03-02T04:59:42.045Z,23.80
2018-03-02T05:02:10.199Z,20.80
2018-03-02T05:04:39.180Z,22.63
2018-03-02T05:07:07.333Z,20.37
2018-03-02T05:09:35.583Z,21.73
2018-03-02T05:12:03.750Z,20.90
2018-03-02T05:14:31.947Z,21.60
2018-03-02T05:17:00.132Z,23.27
2018-03-02T05:19:28.338Z,22.63
2018-03-02T05:21:57.365Z,23.57
2018-03-02T05:24:25.598Z,23.57
2018-03-02T05:26:53.799Z,20.80
2018-03-02T05:29:22.012Z,21.87
2018-03-02T05:31:50.177Z,21.60
2018-03-02T05:34:18.391Z,21.50
2018-03-02T05:36:47.335Z,22.27
2018-03-02T05:39:15.478Z,22.23
2018-03-02T05:41:44.410Z,22.70
2018-03-02T05:44:13.329Z,23.27
2018-03-02T05:46:41.540Z,22.60
2018-03-02T05:49:09.720Z,21.90
2018-03-02T05:51:37.916Z,22.40
2018-03-02T05:54:06.108Z,23.17
2018-03-02T05:56:34.307Z,20.17
2018-03-02T05:59:03.277Z,22.60
2018-03-02T06:01:31.497Z,21.73
2018-03-02T06:04:00.467Z,22.37
2018-03-02T06:06:29.481Z,23.07
2018-03-02T06:08:57.681Z,23.57
2018-03-02T06:11:25.915Z,23.90
2018-03-02T06:13:54.853Z,23.67
2018-03-02T06:16:23.056Z,22.17
2018-03-02T06:18:51.213Z,20.80
2018-03-02T06:21:19.458Z,20.70
2018-03-02T06:23:47.684Z,21.43
2018-03-02T06:26:15.851Z,21.73
2018-03-02T06:28:44.014Z,22.20
2018-03-02T06:31:12.208Z,21.47
2018-03-02T06:33:40.387Z,21.77
2018-03-02T06:36:08.539Z,23.17
2018-03-02T06:38:36.722Z,22.17
2018-03-02T06:41:04.899Z,21.53
2018-03-02T06:43:33.072Z,23.90
2018-03-02T06:46:01.223Z,23.23
2018-03-02T06:48:29.388Z,23.23
2018-03-02T06:50:57.879Z,21.47
2018-03-02T06:53:26.106Z,23.43
2018-03-02T06:55:55.114Z,24.60
2018-03-02T06:58:23.289Z,24.20
2018-03-02T07:00:51.452Z,25.90
2018-03-02T07:03:19.641Z,25.27
2018-03-02T07:05:47.787Z,26.20
2018-03-02T07:08:16.735Z,21.63
2018-03-02T07:10:44.889Z,23.20
2018-03-02T07:13:13.060Z,22.23
2018-03-02T07:15:41.210Z,21.13
2018-03-02T07:18:09.392Z,23.43
2018-03-02T07:20:37.535Z,22.40
2018-03-02T07:23:06.452Z,19.60
2018-03-02T07:25:34.649Z,21.87
2018-03-02T07:28:02.796Z,21.87
2018-03-02T07:30:30.997Z,22.97
2018-03-02T07:32:59.152Z,21.40
2018-03-02T07:35:27.319Z,21.00
2018-03-02T07:37:55.468Z,20.77
2018-03-02T07:40:23.721Z,20.93
2018-03-02T07:42:51.939Z,21.93
2018-03-02T07:45:20.191Z,21.83
2018-03-02T07:47:49.239Z,20.77
2018-03-02T07:50:17.455Z,20.70
2018-03-02T07:52:46.451Z,19.93
2018-03-02T07:55:14.659Z,19.17
2018-03-02T07:57:42.834Z,21.37
2018-03-02T08:00:11.058Z,20.67
2018-03-02T08:02:39.214Z,19.53
2018-03-02T08:05:07.458Z,22.27
2018-03-02T08:07:35.627Z,21.17
2018-03-02T08:10:03.860Z,20.93
2018-03-02T08:12:32.076Z,19.63
2018-03-02T08:15:00.270Z,20.13
2018-03-02T08:17:28.465Z,21.80
2018-03-02T08:19:56.657Z,20.47
2018-03-02T08:22:24.826Z,19.83
2018-03-02T08:24:52.995Z,21.50
2018-03-02T08:27:21.212Z,16.90
2018-03-02T08:29:49.438Z,19.20
2018-03-02T08:32:18.601Z,20.90
2018-03-02T08:34:46.839Z,18.63
2018-03-02T08:37:15.771Z,19.87
2018-03-02T08:39:43.925Z,19.00
2018-03-02T08:42:12.090Z,20.87
2018-03-02T08:44:41.004Z,20.97
2018-03-02T08:47:09.165Z,18.17
2018-03-02T08:49:37.318Z,18.20
2018-03-02T08:52:06.254Z,20.53
2018-03-02T08:54:34.496Z,21.33
2018-03-02T08:57:02.650Z,19.67
2018-03-02T08:59:31.588Z,20.70
2018-03-02T09:01:59.735Z,20.03
2018-03-02T09:04:27.975Z,21.20
2018-03-02T09:06:56.169Z,19.73
2018-03-02T09:09:25.199Z,21.43
2018-03-02T09:11:53.423Z,20.93
2018-03-02T09:14:21.674Z,19.67
2018-03-02T09:16:49.899Z,17.00
2018-03-02T09:19:18.174Z,18.63
2018-03-02T09:21:46.435Z,21.20
2018-03-02T09:24:15.472Z,21.20
2018-03-02T09:26:43.671Z,22.53
2018-03-02T09:29:11.918Z,20.50
2018-03-02T09:31:40.120Z,22.00
2018-03-02T09:34:08.375Z,20.30
2018-03-02T09:36:36.712Z,20.10
2018-03-02T09:39:12.490Z,19.87
2018-03-02T09:41:40.645Z,20.53
2018-03-02T09:44:08.816Z,21.13
2018-03-02T09:46:37.780Z,21.67
2018-03-02T09:49:06.068Z,21.93
2018-03-02T09:51:35.036Z,19.90
2018-03-02T09:54:03.301Z,21.17
2018-03-02T09:56:31.503Z,21.30
2018-03-02T09:59:00.526Z,23.30
2018-03-02T10:01:28.721Z,22.97
2018-03-02T10:03:56.950Z,23.07
2018-03-02T10:06:25.150Z,22.00
2018-03-02T10:08:53.377Z,23.83
2018-03-02T10:11:21.547Z,21.30
2018-03-02T10:13:49.817Z,22.53
2018-03-02T10:16:17.989Z,22.93
2018-03-02T10:18:46.241Z,21.37
2018-03-02T10:21:14.436Z,21.13
2018-03-02T10:23:42.638Z,20.93
2018-03-02T10:26:10.799Z,21.07
2018-03-02T10:28:39.106Z,20.50
2018-03-02T10:31:08.063Z,21.10
2018-03-02T10:33:36.260Z,22.50
2018-03-02T10:36:05.219Z,22.33
2018-03-02T10:38:33.463Z,21.43
2018-03-02T10:41:01.623Z,20.77
2018-03-02T10:43:29.778Z,21.63
2018-03-02T10:45:58.753Z,22.07
2018-03-02T10:48:26.890Z,21.60
2018-03-02T10:50:55.058Z,20.60
2018-03-02T10:53:23.189Z,22.33
2018-03-02T10:55:52.152Z,22.07
2018-03-02T10:58:20.366Z,21.77
2018-03-02T11:00:52.269Z,22.43
2018-03-02T11:03:23.334Z,22.57
2018-03-02T11:05:51.577Z,21.27
2018-03-02T11:08:19.781Z,21.20
2018-03-02T11:10:47.986Z,21.67
2018-03-02T11:13:16.918Z,21.60
2018-03-02T11:15:45.163Z,21.83
2018-03-02T11:18:13.354Z,21.53
2018-03-02T11:20:41.599Z,23.13
2018-03-02T11:23:10.544Z,24.37
2018-03-02T11:25:42.271Z,22.30
2018-03-02T11:28:10.431Z,21.47
2018-03-02T11:30:39.366Z,23.70
2018-03-02T11:33:07.502Z,22.73
2018-03-02T11:35:35.690Z,24.13
2018-03-02T11:38:03.835Z,24.97
2018-03-02T11:40:31.994Z,24.67
2018-03-02T11:43:00.135Z,23.30
2018-03-02T11:45:28.287Z,23.30
2018-03-02T11:47:56.438Z,24.50
2018-03-02T11:50:25.353Z,22.87
2018-03-02T11:52:53.489Z,23.97
2018-03-02T11:55:22.416Z,24.40
2018-03-02T11:57:50.554Z,22.67
2018-03-02T12:00:19.473Z,22.47
2018-03-02T12:02:47.609Z,22.87
2018-03-02T12:05:15.799Z,24.23
2018-03-02T12:07:44.702Z,23.77
2018-03-02T12:10:12.909Z,23.43
2018-03-02T12:12:41.050Z,23.03
2018-03-02T12:15:09.208Z,24.63
2018-03-02T12:17:38.156Z,22.53
2018-03-02T12:20:06.358Z,24.57
2018-03-02T12:22:43.228Z,47.50
2018-03-02T12:25:13.123Z,25.63
2018-03-02T12:27:41.272Z,22.77
2018-03-02T12:30:10.199Z,24.60
2018-03-02T12:32:38.351Z,24.60
2018-03-02T12:35:06.610Z,26.17
2018-03-02T12:37:35.415Z,24.43
2018-03-02T12:40:03.699Z,23.13
2018-03-02T12:42:31.887Z,23.67
2018-03-02T12:45:07.250Z,23.57
2018-03-02T12:47:35.450Z,23.63
2018-03-02T12:50:03.640Z,22.83
2018-03-02T12:52:31.801Z,24.57
2018-03-02T12:54:59.975Z,24.10
2018-03-02T12:57:28.117Z,24.37
2018-03-02T12:59:56.290Z,23.50
2018-03-02T13:02:25.262Z,23.30
2018-03-02T13:04:53.471Z,26.47
2018-03-02T13:07:21.696Z,25.47
2018-03-02T13:09:49.954Z,24.47
2018-03-02T13:12:18.217Z,25.33
2018-03-02T13:14:46.382Z,24.40
2018-03-02T13:17:14.558Z,22.93
2018-03-02T13:19:42.719Z,24.03
2018-03-02T13:25:17.996Z,26.03
2018-03-02T13:28:03.816Z,27.43
2018-03-02T13:30:31.985Z,24.27
2018-03-02T13:36:19.599Z,27.50
2018-03-02T13:38:47.766Z,24.43
2018-03-02T13:41:33.819Z,26.43
2018-03-02T13:44:02.238Z,26.73
2018-03-02T13:46:33.522Z,25.70
2018-03-02T13:49:19.599Z,26.10
2018-03-02T13:51:47.742Z,26.57
2018-03-02T13:54:16.643Z,24.87
2018-03-02T13:57:02.778Z,27.07
2018-03-02T13:59:30.925Z,27.43
2018-03-02T14:01:59.082Z,26.50
2018-03-02T14:04:45.888Z,27.87
2018-03-02T14:07:14.818Z,27.03
2018-03-02T14:09:42.978Z,27.90
2018-03-02T14:12:11.902Z,27.93
2018-03-02T14:14:40.043Z,27.50
2018-03-02T14:17:11.673Z,29.40
2018-03-02T14:19:39.855Z,27.90
2018-03-02T14:22:11.785Z,27.30
2018-03-02T14:24:40.739Z,28.60
2018-03-02T14:27:08.974Z,29.07
2018-03-02T14:29:37.178Z,28.83
2018-03-02T14:32:05.370Z,26.43
2018-03-02T14:34:33.555Z,27.30
2018-03-02T14:37:01.813Z,28.83
2018-03-02T14:39:30.019Z,26.70
2018-03-02T14:41:59.021Z,26.10
2018-03-02T14:44:27.976Z,28.57
2018-03-02T14:46:57.037Z,29.17
2018-03-02T14:49:25.357Z,29.47
2018-03-02T14:51:53.599Z,27.93
2018-03-02T14:54:22.590Z,26.93
2018-03-02T14:56:50.750Z,27.70
2018-03-02T14:59:18.919Z,28.13
2018-03-02T15:01:47.065Z,28.33
2018-03-02T15:04:15.270Z,28.17
2018-03-02T15:06:43.410Z,28.07
2018-03-02T15:09:12.352Z,27.33
2018-03-02T15:11:40.498Z,27.73
2018-03-02T15:14:16.449Z,29.80
2018-03-02T15:16:44.598Z,28.73
2018-03-02T15:19:12.881Z,26.33
2018-03-02T15:21:41.854Z,27.27
2018-03-02T15:24:10.068Z,26.70
2018-03-02T15:26:39.020Z,26.87
2018-03-02T15:29:07.226Z,27.83
2018-03-02T15:31:36.222Z,26.33
2018-03-02T15:34:04.421Z,27.13
2018-03-02T15:36:32.577Z,26.20
2018-03-02T15:39:00.730Z,29.33
2018-03-02T15:41:29.654Z,28.77
2018-03-02T15:43:57.803Z,26.37
2018-03-02T15:46:26.742Z,27.90
2018-03-02T15:48:54.883Z,27.83
2018-03-02T15:51:23.036Z,27.97
2018-03-02T15:53:51.964Z,28.07
2018-03-02T15:56:20.122Z,27.67
2018-03-02T15:58:48.254Z,28.03
2018-03-02T16:01:16.413Z,29.50
2018-03-02T16:03:44.554Z,28.40
2018-03-02T16:06:12.722Z,27.47
2018-03-02T16:08:40.932Z,30.13
2018-03-02T16:11:09.077Z,27.20
2018-03-02T16:13:37.229Z,28.67
2018-03-02T16:16:05.382Z,29.50
2018-03-02T16:18:33.547Z,29.33
2018-03-02T16:21:01.682Z,29.07
2018-03-02T16:23:29.867Z,29.00
2018-03-02T16:25:58.010Z,29.17
2018-03-02T16:28:26.162Z,28.90
2018-03-02T16:30:55.058Z,31.33
2018-03-02T16:33:23.217Z,30.83
2018-03-02T16:35:52.118Z,31.17
2018-03-02T16:38:20.281Z,26.13
2018-03-02T16:40:49.181Z,32.47
2018-03-02T16:43:18.110Z,30.67
2018-03-02T16:45:46.268Z,33.83
2018-03-02T16:48:14.413Z,35.77
2018-03-02T16:50:43.318Z,29.27
2018-03-02T16:53:11.481Z,30.43
2018-03-02T16:55:39.621Z,30.20
2018-03-02T16:58:07.781Z,29.50
2018-03-02T17:00:35.932Z,29.77
2018-03-02T17:03:04.140Z,29.70
2018-03-02T17:05:34.297Z,30.50
2018-03-02T17:08:02.503Z,29.70
2018-03-02T17:10:30.760Z,29.70
2018-03-02T17:12:59.006Z,28.57
2018-03-02T17:15:37.618Z,30.10
2018-03-02T17:18:06.619Z,28.53
2018-03-02T17:20:35.646Z,30.33
2018-03-02T17:23:03.913Z,28.80
2018-03-02T17:25:32.134Z,28.80
2018-03-02T17:28:00.379Z,28.30
2018-03-02T17:30:28.552Z,31.17
2018-03-02T17:32:56.707Z,30.43
2018-03-02T17:35:33.318Z,29.40
2018-03-02T17:38:01.482Z,28.90
2018-03-02T17:40:29.645Z,27.90
2018-03-02T17:42:57.794Z,28.90
2018-03-02T17:45:33.083Z,28.57
2018-03-02T17:48:01.236Z,31.03
2018-03-02T17:50:29.414Z,29.70
2018-03-02T17:52:57.590Z,28.93
2018-03-02T17:55:29.421Z,29.03
2018-03-02T17:57:57.598Z,29.63
2018-03-02T18:00:25.787Z,29.97
2018-03-02T18:02:53.929Z,30.23
2018-03-02T18:05:22.893Z,29.10
2018-03-02T18:07:51.042Z,29.83
2018-03-02T18:10:19.594Z,26.83
2018-03-02T18:12:47.749Z,29.20
2018-03-02T18:15:15.910Z,28.70
2018-03-02T18:17:44.846Z,30.90
2018-03-02T18:20:13.010Z,29.37
2018-03-02T18:22:41.177Z,29.30
2018-03-02T18:25:09.336Z,30.40
2018-03-02T18:27:37.531Z,29.57
2018-03-02T18:30:05.682Z,32.10
2018-03-02T18:32:34.618Z,31.07
2018-03-02T18:35:02.787Z,30.47
2018-03-02T18:37:34.247Z,29.70
2018-03-02T18:40:02.398Z,30.37
2018-03-02T18:42:30.571Z,30.57
2018-03-02T18:44:58.743Z,29.53
2018-03-02T18:47:30.438Z,29.60
2018-03-02T18:49:58.590Z,28.13
2018-03-02T18:52:26.749Z,30.00
2018-03-02T18:54:54.901Z,33.73
2018-03-02T18:57:57.897Z,33.93
2018-03-02T19:00:26.049Z,32.03
2018-03-02T19:02:54.979Z,35.93
2018-03-02T19:05:23.122Z,31.17
2018-03-02T19:07:51.347Z,33.00
2018-03-02T19:10:19.563Z,32.83
2018-03-02T19:12:48.491Z,31.40
2018-03-02T19:15:16.643Z,30.77
2018-03-02T19:17:44.834Z,30.60
2018-03-02T19:20:13.741Z,35.17
2018-03-02T19:22:41.913Z,38.07
2018-03-02T19:25:10.066Z,34.17
2018-03-02T19:27:39.166Z,38.80
2018-03-02T19:30:07.348Z,38.90
2018-03-02T19:32:35.499Z,37.63
2018-03-02T19:35:03.657Z,31.50
2018-03-02T19:37:31.833Z,36.17
2018-03-02T19:40:00.785Z,34.90
2018-03-02T19:42:28.918Z,36.57
2018-03-02T19:44:57.081Z,35.50
2018-03-02T19:47:27.229Z,36.97
2018-03-02T19:49:55.418Z,37.67
2018-03-02T19:52:24.418Z,32.57
2018-03-02T19:54:52.584Z,32.70
2018-03-02T19:57:20.746Z,34.30
2018-03-02T19:59:49.929Z,39.00
2018-03-02T20:02:18.070Z,33.60
2018-03-02T20:04:46.993Z,28.13
2018-03-02T20:07:15.137Z,35.47
2018-03-02T20:09:43.314Z,38.17
2018-03-02T20:12:11.464Z,37.50
2018-03-02T20:14:47.672Z,31.87
2018-03-02T20:17:20.164Z,32.60
2018-03-02T20:19:48.351Z,32.20
2018-03-02T20:22:19.683Z,30.87
2018-03-02T20:24:47.830Z,30.87
2018-03-02T20:27:15.999Z,29.30
2018-03-02T20:29:44.194Z,29.83
2018-03-02T20:32:12.431Z,30.53
2018-03-02T20:34:40.614Z,30.63
2018-03-02T20:37:08.858Z,30.27
2018-03-02T20:39:37.042Z,28.77
2018-03-02T20:42:06.918Z,30.40
2018-03-02T20:44:35.078Z,29.60
2018-03-02T20:47:03.315Z,30.03
2018-03-02T20:49:31.541Z,29.40
2018-03-02T20:51:59.758Z,29.67
2018-03-02T20:54:28.718Z,31.23
2018-03-02T20:56:56.970Z,35.63
2018-03-02T20:59:25.187Z,55.80
2018-03-02T21:01:53.385Z,48.13
2018-03-02T21:04:21.567Z,33.03
2018-03-02T21:06:49.783Z,30.47
2018-03-02T21:09:17.978Z,31.73
2018-03-02T21:11:46.194Z,31.77
2018-03-02T21:14:14.367Z,31.87
2018-03-02T21:16:42.611Z,32.53
2018-03-02T21:19:11.549Z,29.43
2018-03-02T21:21:39.750Z,29.30
2018-03-02T21:24:07.978Z,30.93
2018-03-02T21:26:36.229Z,30.00
2018-03-02T21:29:05.172Z,29.60
2018-03-02T21:31:33.428Z,31.03
2018-03-02T21:34:01.626Z,30.13
2018-03-02T21:36:29.894Z,30.47
2018-03-02T21:38:58.111Z,31.63
2018-03-02T21:41:27.077Z,32.17
2018-03-02T21:43:55.278Z,31.20
2018-03-02T21:46:23.531Z,31.10
2018-03-02T21:48:52.503Z,36.13
2018-03-02T21:51:20.716Z,31.53
2018-03-02T21:53:48.927Z,35.93
2018-03-02T21:56:17.166Z,30.60
2018-03-02T21:58:45.373Z,31.07
2018-03-02T22:01:13.517Z,31.50
2018-03-02T22:03:41.682Z,30.47
2018-03-02T22:06:09.853Z,28.80
2018-03-02T22:08:38.017Z,31.43
2018-03-02T22:11:06.157Z,30.47
2018-03-02T22:13:34.321Z,30.93
2018-03-02T22:16:02.466Z,29.70
2018-03-02T22:18:31.439Z,34.03
2018-03-02T22:20:59.597Z,28.70
2018-03-02T22:23:27.729Z,29.47
2018-03-02T22:25:55.890Z,29.47
2018-03-02T22:28:24.822Z,29.63
2018-03-02T22:30:52.961Z,29.43
2018-03-02T22:33:21.111Z,30.07
2018-03-02T22:35:50.050Z,30.13
2018-03-02T22:38:18.202Z,29.97
2018-03-02T22:40:46.365Z,29.53
2018-03-02T22:43:15.274Z,29.93
2018-03-02T22:45:43.437Z,28.57
2018-03-02T22:48:11.587Z,28.90
2018-03-02T22:50:39.753Z,29.53
2018-03-02T22:53:07.921Z,30.57
2018-03-02T22:55:36.082Z,28.40
2018-03-02T22:58:04.224Z,29.63
2018-03-02T23:00:32.412Z,28.27
2018-03-02T23:03:00.558Z,29.70
2018-03-02T23:05:28.718Z,28.57
2018-03-02T23:07:56.862Z,27.90
2018-03-02T23:10:25.038Z,28.83
2018-03-02T23:12:53.181Z,29.57
2018-03-02T23:15:21.321Z,29.97
2018-03-02T23:17:49.489Z,27.47
2018-03-02T23:20:17.674Z,26.93
2018-03-02T23:22:45.846Z,27.97
2018-03-02T23:25:13.999Z,27.50
2018-03-02T23:27:42.934Z,30.03
2018-03-02T23:30:11.115Z,28.13
2018-03-02T23:32:39.277Z,28.67
2018-03-02T23:35:07.425Z,29.60
2018-03-02T23:37:35.590Z,29.80
2018-03-02T23:40:03.737Z,31.00
2018-03-02T23:42:31.906Z,28.53
2018-03-02T23:45:00.050Z,31.60
2018-03-02T23:47:28.218Z,30.47
2018-03-02T23:49:56.361Z,32.03
2018-03-02T23:52:24.534Z,28.90
2018-03-02T23:54:52.674Z,28.67
2018-03-02T23:57:20.894Z,36.77
2018-03-02T23:59:49.037Z,29.40
